Turton, South Dakota
Current Conditions -  °F | °C
As of 4:29 PM on Sunday 23 Nov 2014 (Local Time) from KABR Reporting Station
Overcast Overcast  
Wind Chill: 15°   Ceiling: 2600
Heat Index: 29°   Visibility: 10mi
Dew Point: 19°   Wind: 25mph
Humidity: 67%   Direction: 310°NW
Pressure: 29.58"   Gusts: 33mph
Location:  45.05°N, 98.1°W
Report Text: KABR 232229Z AUTO 31022G29KT 10SM BKN026 OVC036 M02/M07 A2958 RMK AO2 PK WND 31033/2154 T10171072
Loading
Personal Weather Stations






























Interactive Weather Map New forecast layout! Learn more

10-Day Weather Forecast

Advertisements
Track Severe Weather on mobile